Terminal Aerodrome Forecast
Issued by NWS Newport/Morehead City, NC

Home | Current Version | Previous Version | Text Only | Print | Product List | Glossary On
Versions: 1 2 3 4 5 6 7 8 9 10 11 12
000
FTUS42 KMHX 080537
TAFEWN
TAF
KEWN 080537Z 0806/0906 VRB02KT P6SM SCT030 BKN050
      TEMPO 0806/0809 5SM BR BKN025
     FM081000 26008KT P6SM BKN020
     FM082000 30009G15KT P6SM BKN040
     FM090000 32008KT P6SM SCT200=

USA.gov is the U.S. government's official web portal to all federal, state and local government web resources and services.